Time;durP1;ratioP1;P1;durP2;ratioP2;P2;SDS_P1;SDS_P2;PMS_P1;PMS_P2;Temp;Humidity;BMP_temperature;BMP_pressure;BME280_temperature;BME280_humidity;BME280_pressure;Samples;Min_cycle;Max_cycle;Signal;HPM_P1;HPM_P2
2022/07/05 00:00:21;;;;;;;10.10;2.03;;;;;;;;;;5136223;27;20880;-69
2022/07/05 00:02:49;;;;;;;5.47;1.83;;;;;;;;;;5136314;27;20536;-69
2022/07/05 00:05:17;;;;;;;3.43;1.60;;;;;;;;;;5133150;27;20450;-69
2022/07/05 00:07:46;;;;;;;5.60;1.57;;;;;;;;;;5130131;27;22068;-69
2022/07/05 00:10:15;;;;;;;4.03;1.77;;;;;;;;;;5126853;27;20457;-70
2022/07/05 00:12:43;;;;;;;2.73;1.90;;;;;;;;;;5135012;27;20446;-69
2022/07/05 00:15:13;;;;;;;3.07;1.83;;;;;;;;;;5134964;27;20485;-69
2022/07/05 00:17:43;;;;;;;6.57;1.93;;;;;;;;;;5135293;27;20481;-69
2022/07/05 00:20:11;;;;;;;12.20;2.30;;;;;;;;;;5135603;27;20500;-69
2022/07/05 00:22:39;;;;;;;6.37;2.40;;;;;;;;;;5135920;27;20481;-69
2022/07/05 00:25:09;;;;;;;5.87;2.00;;;;;;;;;;5135210;27;20466;-69
2022/07/05 00:27:37;;;;;;;5.17;2.50;;;;;;;;;;5123126;27;20482;-69
2022/07/05 00:30:05;;;;;;;4.93;2.23;;;;;;;;;;5127583;27;20445;-69
2022/07/05 00:32:33;;;;;;;6.63;2.73;;;;;;;;;;5135348;27;20503;-69
2022/07/05 00:35:02;;;;;;;3.40;1.80;;;;;;;;;;5123902;27;20430;-69
2022/07/05 00:37:29;;;;;;;3.93;1.80;;;;;;;;;;5130733;27;20457;-69
2022/07/05 00:39:57;;;;;;;4.53;2.00;;;;;;;;;;5127509;27;20846;-69
2022/07/05 00:42:25;;;;;;;4.67;1.77;;;;;;;;;;5127223;27;20450;-69
2022/07/05 00:44:54;;;;;;;4.20;2.20;;;;;;;;;;5133858;27;20446;-69
2022/07/05 00:47:23;;;;;;;3.70;1.90;;;;;;;;;;5114996;28;20482;-69
2022/07/05 00:49:50;;;;;;;2.90;1.50;;;;;;;;;;5115739;28;20461;-69
2022/07/05 00:52:22;;;;;;;4.80;1.90;;;;;;;;;;5119563;27;20944;-69
2022/07/05 00:54:51;;;;;;;3.93;2.20;;;;;;;;;;5134500;27;20880;-69
2022/07/05 00:57:21;;;;;;;3.30;1.67;;;;;;;;;;5125910;27;20456;-69
2022/07/05 00:59:49;;;;;;;6.03;2.17;;;;;;;;;;5125822;27;20510;-69
2022/07/05 01:02:16;;;;;;;7.20;2.20;;;;;;;;;;5114436;28;20585;-69
2022/07/05 01:04:44;;;;;;;2.87;1.80;;;;;;;;;;5122063;27;20450;-69
2022/07/05 01:07:12;;;;;;;4.20;1.87;;;;;;;;;;5134643;27;20512;-69
2022/07/05 01:09:41;;;;;;;5.77;2.00;;;;;;;;;;5134105;27;20450;-68
2022/07/05 01:12:10;;;;;;;3.50;1.60;;;;;;;;;;5134699;27;20487;-69
2022/07/05 01:14:43;;;;;;;5.87;1.83;;;;;;;;;;5135444;27;20738;-69
2022/07/05 01:17:11;;;;;;;3.90;1.87;;;;;;;;;;5134453;27;20453;-69
2022/07/05 01:19:39;;;;;;;3.77;1.93;;;;;;;;;;5128465;28;20531;-69
2022/07/05 01:22:11;;;;;;;3.90;1.97;;;;;;;;;;5114311;28;20457;-69
2022/07/05 01:24:40;;;;;;;8.00;1.73;;;;;;;;;;5129175;28;20446;-69
2022/07/05 01:27:08;;;;;;;3.90;1.97;;;;;;;;;;5124308;28;20536;-69
2022/07/05 01:29:39;;;;;;;2.80;1.73;;;;;;;;;;5122156;28;20530;-69
2022/07/05 01:32:07;;;;;;;6.90;2.30;;;;;;;;;;5113636;28;20894;-69
2022/07/05 01:34:39;;;;;;;3.60;2.33;;;;;;;;;;5114488;28;20442;-69
2022/07/05 01:37:07;;;;;;;3.40;2.10;;;;;;;;;;5113805;28;20892;-69
2022/07/05 01:39:34;;;;;;;4.77;2.20;;;;;;;;;;5127343;28;20452;-69
2022/07/05 01:42:04;;;;;;;8.13;2.37;;;;;;;;;;5135655;28;21028;-69
2022/07/05 01:44:32;;;;;;;3.33;1.77;;;;;;;;;;5134840;28;20454;-69
2022/07/05 01:47:04;;;;;;;9.80;3.13;;;;;;;;;;5135857;28;20493;-69
2022/07/05 01:49:34;;;;;;;5.60;2.33;;;;;;;;;;5130738;28;20457;-69
2022/07/05 01:52:04;;;;;;;3.10;2.03;;;;;;;;;;5114763;28;20486;-69
2022/07/05 01:54:32;;;;;;;8.43;2.30;;;;;;;;;;5121986;28;21026;-69
2022/07/05 01:57:00;;;;;;;2.90;2.07;;;;;;;;;;5114766;28;20493;-69
2022/07/05 01:59:29;;;;;;;4.53;2.00;;;;;;;;;;5123280;28;20441;-69
2022/07/05 02:01:57;;;;;;;4.73;1.87;;;;;;;;;;5116511;28;20458;-69
2022/07/05 02:04:25;;;;;;;5.83;2.30;;;;;;;;;;5118258;27;20647;-69
2022/07/05 02:06:52;;;;;;;5.17;2.00;;;;;;;;;;5132343;27;20764;-69
2022/07/05 02:09:20;;;;;;;5.33;1.93;;;;;;;;;;5137688;27;20450;-69
2022/07/05 02:11:48;;;;;;;4.57;2.20;;;;;;;;;;5124489;27;20802;-69
2022/07/05 02:14:16;;;;;;;6.47;1.90;;;;;;;;;;5116598;28;20882;-69
2022/07/05 02:16:45;;;;;;;5.53;2.23;;;;;;;;;;5117952;28;20508;-69
2022/07/05 02:19:13;;;;;;;2.90;2.10;;;;;;;;;;5116373;28;20438;-69
2022/07/05 02:21:41;;;;;;;5.27;2.47;;;;;;;;;;5132999;27;20490;-69
2022/07/05 02:24:08;;;;;;;3.30;1.90;;;;;;;;;;5126001;27;20460;-69
2022/07/05 02:26:37;;;;;;;4.80;1.87;;;;;;;;;;5137796;27;20477;-69
2022/07/05 02:29:05;;;;;;;6.47;2.50;;;;;;;;;;5129430;27;20454;-69
2022/07/05 02:31:33;;;;;;;4.90;2.00;;;;;;;;;;5121520;27;20488;-69
2022/07/05 02:34:05;;;;;;;4.80;2.30;;;;;;;;;;5129752;27;20447;-69
2022/07/05 02:36:33;;;;;;;6.70;2.37;;;;;;;;;;5116988;27;20471;-69
2022/07/05 02:39:01;;;;;;;3.83;2.07;;;;;;;;;;5117796;28;20576;-69
2022/07/05 02:41:29;;;;;;;6.90;3.40;;;;;;;;;;5116095;27;20927;-69
2022/07/05 02:43:57;;;;;;;4.33;2.17;;;;;;;;;;5123195;27;21012;-69
2022/07/05 02:46:24;;;;;;;5.70;2.30;;;;;;;;;;5136463;27;20488;-69
2022/07/05 02:48:53;;;;;;;5.80;2.33;;;;;;;;;;5124443;27;20515;-69
2022/07/05 02:51:22;;;;;;;5.03;2.30;;;;;;;;;;5134747;27;20450;-69
2022/07/05 02:53:50;;;;;;;3.47;2.10;;;;;;;;;;5132497;27;20761;-69
2022/07/05 02:56:18;;;;;;;4.87;1.70;;;;;;;;;;5124844;27;20498;-69
2022/07/05 02:58:45;;;;;;;6.67;2.20;;;;;;;;;;5125085;27;20466;-69
2022/07/05 03:01:13;;;;;;;4.87;2.80;;;;;;;;;;5124467;27;20447;-69
2022/07/05 03:03:41;;;;;;;3.30;1.90;;;;;;;;;;5134834;27;20481;-69
2022/07/05 03:06:09;;;;;;;3.07;1.80;;;;;;;;;;5117000;28;20454;-69
2022/07/05 03:08:38;;;;;;;3.60;1.80;;;;;;;;;;5134406;27;20526;-69
2022/07/05 03:11:06;;;;;;;6.70;2.13;;;;;;;;;;5135095;27;20450;-69
2022/07/05 03:13:33;;;;;;;5.90;2.50;;;;;;;;;;5119758;27;20490;-69
2022/07/05 03:16:02;;;;;;;13.93;2.60;;;;;;;;;;5119184;27;20494;-69
2022/07/05 03:18:29;;;;;;;5.03;2.20;;;;;;;;;;5121347;27;20450;-69
2022/07/05 03:20:57;;;;;;;3.90;2.40;;;;;;;;;;5124261;27;20455;-69
2022/07/05 03:23:25;;;;;;;4.20;2.03;;;;;;;;;;5132157;27;20458;-69
2022/07/05 03:25:54;;;;;;;5.70;2.43;;;;;;;;;;5116682;27;20454;-69
2022/07/05 03:28:22;;;;;;;5.83;2.40;;;;;;;;;;5122285;27;20477;-69
2022/07/05 03:30:50;;;;;;;5.00;2.70;;;;;;;;;;5127421;27;20477;-69
2022/07/05 03:33:18;;;;;;;3.00;2.17;;;;;;;;;;5136309;27;20800;-69
2022/07/05 03:35:46;;;;;;;7.80;2.80;;;;;;;;;;5134811;27;20442;-69
2022/07/05 03:38:13;;;;;;;4.23;2.50;;;;;;;;;;5134413;27;20508;-69
2022/07/05 03:40:41;;;;;;;4.53;2.17;;;;;;;;;;5135101;27;20549;-69
2022/07/05 03:43:10;;;;;;;4.63;2.40;;;;;;;;;;5124019;27;20469;-69
2022/07/05 03:45:38;;;;;;;2.73;1.53;;;;;;;;;;5114121;28;20944;-69
2022/07/05 03:48:06;;;;;;;5.03;2.30;;;;;;;;;;5115799;27;20565;-69
2022/07/05 03:50:34;;;;;;;7.20;2.07;;;;;;;;;;5132431;27;20546;-69
2022/07/05 03:53:02;;;;;;;4.20;2.57;;;;;;;;;;5132527;27;20812;-69
2022/07/05 03:55:30;;;;;;;5.80;2.77;;;;;;;;;;5130538;27;20465;-69
2022/07/05 03:57:58;;;;;;;3.60;2.27;;;;;;;;;;5116115;27;20475;-69
2022/07/05 04:00:27;;;;;;;6.30;2.50;;;;;;;;;;5129746;27;20458;-69
2022/07/05 04:02:55;;;;;;;3.43;2.27;;;;;;;;;;5125080;27;20537;-69
2022/07/05 04:05:25;;;;;;;4.10;2.63;;;;;;;;;;5129277;27;20454;-69
2022/07/05 04:07:54;;;;;;;3.53;2.17;;;;;;;;;;5126387;27;20569;-69
2022/07/05 04:10:21;;;;;;;4.80;2.30;;;;;;;;;;5134104;27;20522;-69
2022/07/05 04:12:50;;;;;;;6.23;2.00;;;;;;;;;;5134462;27;20442;-69
2022/07/05 04:15:18;;;;;;;3.20;2.27;;;;;;;;;;5126568;27;20582;-69
2022/07/05 04:17:51;;;;;;;5.37;2.50;;;;;;;;;;5125021;27;20577;-69
2022/07/05 04:20:18;;;;;;;3.60;2.90;;;;;;;;;;5114918;27;20450;-69
2022/07/05 04:22:46;;;;;;;3.07;2.30;;;;;;;;;;5114339;28;20463;-69
2022/07/05 04:25:20;;;;;;;4.10;2.37;;;;;;;;;;5121297;27;20469;-69
2022/07/05 04:27:48;;;;;;;5.00;2.70;;;;;;;;;;5114071;28;20840;-69
2022/07/05 04:30:20;;;;;;;4.20;2.23;;;;;;;;;;5115772;27;20459;-69
2022/07/05 04:32:48;;;;;;;3.70;2.73;;;;;;;;;;5121406;27;20956;-69
2022/07/05 04:35:18;;;;;;;12.17;7.07;;;;;;;;;;5125607;27;20499;-69
2022/07/05 04:37:45;;;;;;;6.17;2.37;;;;;;;;;;5127800;27;20457;-69
2022/07/05 04:40:14;;;;;;;7.80;2.50;;;;;;;;;;5117434;27;20523;-69
2022/07/05 04:42:42;;;;;;;3.63;2.57;;;;;;;;;;5127388;27;20534;-69
2022/07/05 04:45:10;;;;;;;3.50;1.60;;;;;;;;;;5115387;27;20473;-69
2022/07/05 04:47:38;;;;;;;10.23;3.10;;;;;;;;;;5123207;27;20474;-70
2022/07/05 04:50:06;;;;;;;6.00;2.83;;;;;;;;;;5129936;27;20458;-69
2022/07/05 04:52:35;;;;;;;7.50;2.67;;;;;;;;;;5118625;27;20446;-69
2022/07/05 04:55:03;;;;;;;3.97;2.20;;;;;;;;;;5124910;27;20458;-68
2022/07/05 04:57:37;;;;;;;4.90;2.40;;;;;;;;;;5125385;27;20499;-68
2022/07/05 05:00:05;;;;;;;3.73;2.00;;;;;;;;;;5122417;27;20979;-69
2022/07/05 05:02:33;;;;;;;10.40;2.10;;;;;;;;;;5113757;28;20443;-69
2022/07/05 05:05:01;;;;;;;7.43;1.90;;;;;;;;;;5123092;27;20464;-69
2022/07/05 05:07:29;;;;;;;5.60;1.83;;;;;;;;;;5132411;27;21031;-69
2022/07/05 05:09:58;;;;;;;9.30;3.70;;;;;;;;;;5123786;27;20485;-69
2022/07/05 05:12:26;;;;;;;3.37;1.60;;;;;;;;;;5123597;27;20437;-68
2022/07/05 05:14:54;;;;;;;4.53;1.80;;;;;;;;;;5126683;27;20458;-68
2022/07/05 05:17:22;;;;;;;3.13;1.40;;;;;;;;;;5114752;28;20443;-69
2022/07/05 05:19:49;;;;;;;3.03;1.43;;;;;;;;;;5122714;27;20446;-70
2022/07/05 05:22:18;;;;;;;4.73;1.53;;;;;;;;;;5122357;28;20542;-68
2022/07/05 05:24:45;;;;;;;4.37;1.60;;;;;;;;;;5131511;28;20445;-69
2022/07/05 05:27:14;;;;;;;5.33;1.40;;;;;;;;;;5122176;28;20906;-69
2022/07/05 05:29:42;;;;;;;4.23;1.63;;;;;;;;;;5130050;28;20457;-69
2022/07/05 05:32:10;;;;;;;4.37;1.37;;;;;;;;;;5123672;28;20836;-70
2022/07/05 05:34:40;;;;;;;4.20;1.70;;;;;;;;;;5115752;27;20459;-69
2022/07/05 05:37:08;;;;;;;4.30;1.60;;;;;;;;;;5124539;27;20477;-70
2022/07/05 05:39:38;;;;;;;7.53;2.20;;;;;;;;;;5126478;27;20460;-69
2022/07/05 05:42:07;;;;;;;5.23;1.80;;;;;;;;;;5126566;27;20545;-69
2022/07/05 05:44:36;;;;;;;4.23;1.43;;;;;;;;;;5122626;27;20501;-69
2022/07/05 05:47:04;;;;;;;5.50;2.97;;;;;;;;;;5119874;27;20469;-70
2022/07/05 05:49:32;;;;;;;4.27;1.40;;;;;;;;;;5123941;27;20441;-69
2022/07/05 05:52:10;;;;;;;;;;;;;;;;;;;;;
2022/07/05 05:54:38;;;;;;;6.20;1.80;;;;;;;;;;5128452;27;20464;-69
2022/07/05 05:57:06;;;;;;;5.20;1.50;;;;;;;;;;5134314;27;20438;-70
2022/07/05 05:59:36;;;;;;;3.70;1.40;;;;;;;;;;5123172;27;20455;-71
2022/07/05 06:02:04;;;;;;;4.17;1.63;;;;;;;;;;5113839;27;20455;-69
2022/07/05 06:04:36;;;;;;;2.70;1.20;;;;;;;;;;5122831;27;20519;-70
2022/07/05 06:07:08;;;;;;;3.67;1.53;;;;;;;;;;5121145;27;20450;-70
2022/07/05 06:09:37;;;;;;;4.50;1.40;;;;;;;;;;5115138;27;20450;-70
2022/07/05 06:12:08;;;;;;;4.60;1.37;;;;;;;;;;5124080;27;20443;-70
2022/07/05 06:14:37;;;;;;;2.40;1.10;;;;;;;;;;5115371;27;20466;-71
2022/07/05 06:17:05;;;;;;;3.00;1.43;;;;;;;;;;5129283;27;20441;-69
2022/07/05 06:19:33;;;;;;;3.33;1.10;;;;;;;;;;5133254;27;20454;-70
2022/07/05 06:22:02;;;;;;;10.10;5.33;;;;;;;;;;5125000;27;20454;-71
2022/07/05 06:24:29;;;;;;;2.20;1.10;;;;;;;;;;5119840;27;20462;-70
2022/07/05 06:26:57;;;;;;;3.53;1.87;;;;;;;;;;5115545;27;20463;-70
2022/07/05 06:29:28;;;;;;;7.33;1.70;;;;;;;;;;5123158;27;21008;-70
2022/07/05 06:32:03;;;;;;;3.77;1.87;;;;;;;;;;5119303;27;20465;-71
2022/07/05 06:34:31;;;;;;;3.50;1.10;;;;;;;;;;5135537;27;20564;-70
2022/07/05 06:36:59;;;;;;;4.47;1.10;;;;;;;;;;5126612;27;20458;-69
2022/07/05 06:39:30;;;;;;;5.00;1.30;;;;;;;;;;5129136;27;20965;-70
2022/07/05 06:42:01;;;;;;;3.53;1.13;;;;;;;;;;5134505;27;20462;-70
2022/07/05 06:44:35;;;;;;;10.63;1.50;;;;;;;;;;5132942;27;20460;-71
2022/07/05 06:47:06;;;;;;;3.20;1.20;;;;;;;;;;5135387;27;20460;-71
2022/07/05 06:49:33;;;;;;;3.00;1.07;;;;;;;;;;5118327;27;20522;-70
2022/07/05 06:52:01;;;;;;;4.87;1.10;;;;;;;;;;5124495;27;20554;-71
2022/07/05 06:54:29;;;;;;;5.63;1.17;;;;;;;;;;5121332;27;20541;-71
2022/07/05 06:56:58;;;;;;;3.30;0.90;;;;;;;;;;5123756;27;20445;-71
2022/07/05 06:59:26;;;;;;;2.87;1.00;;;;;;;;;;5126978;27;21069;-71
2022/07/05 07:01:54;;;;;;;6.53;2.60;;;;;;;;;;5115876;27;20446;-71
2022/07/05 07:04:24;;;;;;;3.93;1.00;;;;;;;;;;5119053;27;20455;-71
2022/07/05 07:06:52;;;;;;;3.00;1.13;;;;;;;;;;5117614;27;20512;-71
2022/07/05 07:09:20;;;;;;;2.13;0.90;;;;;;;;;;5120078;27;20712;-70
2022/07/05 07:11:48;;;;;;;2.77;1.00;;;;;;;;;;5117167;27;20901;-72
2022/07/05 07:14:17;;;;;;;3.80;1.40;;;;;;;;;;5132061;27;20449;-72
2022/07/05 07:16:45;;;;;;;2.10;0.97;;;;;;;;;;5119749;27;21133;-72
2022/07/05 07:19:13;;;;;;;4.90;1.30;;;;;;;;;;5126472;27;20450;-72
2022/07/05 07:21:43;;;;;;;2.77;1.03;;;;;;;;;;5133601;27;20465;-71
2022/07/05 07:24:11;;;;;;;2.80;1.00;;;;;;;;;;5115139;28;20451;-72
2022/07/05 07:29:27;;;;;;;1.93;1.03;;;;;;;;;;5123310;27;20469;-72
2022/07/05 07:31:57;;;;;;;2.90;1.47;;;;;;;;;;5026948;27;2488140;-72
2022/07/05 07:34:26;;;;;;;2.07;1.10;;;;;;;;;;5120328;27;20211;-73
2022/07/05 07:36:59;;;;;;;2.37;0.90;;;;;;;;;;5127494;27;20462;-74
2022/07/05 07:39:37;;;;;;;3.50;1.23;;;;;;;;;;5131278;27;20507;-71
2022/07/05 07:42:13;;;;;;;1.97;0.90;;;;;;;;;;5128800;27;20547;-71
2022/07/05 07:44:55;;;;;;;;;;;;;;;;;;;;;
2022/07/05 07:47:27;;;;;;;1.80;0.70;;;;;;;;;;5117258;27;20757;-71
2022/07/05 07:49:57;;;;;;;3.47;1.13;;;;;;;;;;5118068;27;20443;-72
2022/07/05 07:52:33;;;;;;;1.93;0.73;;;;;;;;;;5126053;27;21125;-71
2022/07/05 07:55:05;;;;;;;1.80;0.83;;;;;;;;;;5129691;27;20448;-71
2022/07/05 07:57:38;;;;;;;2.37;0.87;;;;;;;;;;5129893;27;20453;-71
2022/07/05 08:00:07;;;;;;;5.83;1.87;;;;;;;;;;5116599;27;20454;-72
2022/07/05 08:02:34;;;;;;;3.37;1.17;;;;;;;;;;5116390;27;20447;-73
2022/07/05 08:05:04;;;;;;;2.90;0.90;;;;;;;;;;5116547;27;20474;-73
2022/07/05 08:07:35;;;;;;;3.43;0.97;;;;;;;;;;5122416;27;20684;-73
2022/07/05 08:10:02;;;;;;;1.87;0.60;;;;;;;;;;5119293;27;20475;-73
2022/07/05 08:12:30;;;;;;;3.60;1.03;;;;;;;;;;5124096;27;20779;-71
2022/07/05 08:14:58;;;;;;;3.10;0.87;;;;;;;;;;5130879;27;20472;-74
2022/07/05 08:17:27;;;;;;;1.90;0.80;;;;;;;;;;5130150;27;20465;-70
2022/07/05 08:23:05;;;;;;;8.43;2.70;;;;;;;;;;5129325;27;20539;-71
2022/07/05 08:25:37;;;;;;;1.90;0.97;;;;;;;;;;5128973;27;20456;-72
2022/07/05 08:28:12;;;;;;;1.80;0.70;;;;;;;;;;5129050;27;20543;-71
2022/07/05 08:30:45;;;;;;;3.43;0.90;;;;;;;;;;5123424;27;20827;-72
2022/07/05 08:33:13;;;;;;;2.30;0.80;;;;;;;;;;5128760;27;20453;-71
2022/07/05 08:35:41;;;;;;;2.60;0.77;;;;;;;;;;5125090;27;20497;-71
2022/07/05 08:38:12;;;;;;;3.03;1.10;;;;;;;;;;5129772;27;20453;-70
2022/07/05 08:40:42;;;;;;;3.57;1.10;;;;;;;;;;5130993;27;21100;-70
2022/07/05 08:43:11;;;;;;;1.90;0.70;;;;;;;;;;5128012;27;22070;-70
2022/07/05 08:45:44;;;;;;;1.57;0.70;;;;;;;;;;5122175;27;20558;-72
2022/07/05 08:48:12;;;;;;;2.83;1.07;;;;;;;;;;5132012;27;20478;-72
2022/07/05 08:50:48;;;;;;;7.57;1.23;;;;;;;;;;5130193;27;20460;-72
2022/07/05 08:53:17;;;;;;;4.10;0.70;;;;;;;;;;5124519;27;20460;-71
2022/07/05 08:55:47;;;;;;;4.17;0.87;;;;;;;;;;5115891;27;20458;-71
2022/07/05 08:58:16;;;;;;;2.43;1.07;;;;;;;;;;5127640;27;20450;-72
2022/07/05 09:00:48;;;;;;;2.83;1.17;;;;;;;;;;5121779;27;21253;-73
2022/07/05 09:03:18;;;;;;;1.50;0.60;;;;;;;;;;5123192;27;20850;-72
2022/07/05 09:05:49;;;;;;;4.37;0.80;;;;;;;;;;5131477;27;20901;-72
2022/07/05 09:08:22;;;;;;;3.07;0.77;;;;;;;;;;5127080;27;20478;-71
2022/07/05 09:10:51;;;;;;;1.77;0.60;;;;;;;;;;5123766;27;20959;-73
2022/07/05 09:13:23;;;;;;;4.70;0.83;;;;;;;;;;5124652;27;20485;-73
2022/07/05 09:15:58;;;;;;;2.37;0.60;;;;;;;;;;5121087;27;20463;-73
2022/07/05 09:18:45;;;;;;;2.07;0.60;;;;;;;;;;5130028;27;20486;-72
2022/07/05 09:21:18;;;;;;;2.53;0.67;;;;;;;;;;5112413;28;20474;-73
2022/07/05 09:24:06;;;;;;;3.77;0.90;;;;;;;;;;5122107;27;20470;-72
2022/07/05 09:26:37;;;;;;;2.30;0.70;;;;;;;;;;5127014;28;20446;-72
2022/07/05 09:29:15;;;;;;;2.23;0.80;;;;;;;;;;5129460;27;20474;-72
2022/07/05 09:32:11;;;;;;;3.07;1.00;;;;;;;;;;5122863;28;20466;-73
2022/07/05 09:34:44;;;;;;;2.77;1.17;;;;;;;;;;5126978;27;20561;-72
2022/07/05 09:37:12;;;;;;;4.17;0.80;;;;;;;;;;5124920;27;20582;-71
2022/07/05 09:39:41;;;;;;;2.37;0.70;;;;;;;;;;5117321;27;20451;-72
2022/07/05 09:42:18;;;;;;;2.20;0.63;;;;;;;;;;5112185;27;20446;-72
2022/07/05 09:45:04;;;;;;;1.70;0.63;;;;;;;;;;5125441;27;20454;-73
2022/07/05 09:47:44;;;;;;;2.53;0.60;;;;;;;;;;5129764;28;20462;-72
2022/07/05 09:50:15;;;;;;;1.90;0.80;;;;;;;;;;5131161;27;20983;-72
2022/07/05 09:52:51;;;;;;;3.20;0.80;;;;;;;;;;5127057;28;20948;-72
2022/07/05 09:55:24;;;;;;;1.60;0.60;;;;;;;;;;5113664;28;20450;-73
2022/07/05 09:57:56;;;;;;;1.70;0.70;;;;;;;;;;5120416;28;20446;-72
2022/07/05 10:00:25;;;;;;;1.60;0.70;;;;;;;;;;5114926;28;20857;-73
2022/07/05 10:03:00;;;;;;;4.83;0.70;;;;;;;;;;5130406;27;20848;-73
2022/07/05 10:05:31;;;;;;;2.90;0.80;;;;;;;;;;5121816;27;20514;-73
2022/07/05 10:08:00;;;;;;;1.47;0.53;;;;;;;;;;5120907;27;20801;-72
2022/07/05 10:10:30;;;;;;;1.60;0.60;;;;;;;;;;5126814;27;20491;-72
2022/07/05 10:13:06;;;;;;;1.80;0.70;;;;;;;;;;5120200;27;20453;-72
2022/07/05 10:15:35;;;;;;;4.17;1.70;;;;;;;;;;5124523;27;20897;-72
2022/07/05 10:18:07;;;;;;;2.37;0.60;;;;;;;;;;5138109;27;20458;-72
2022/07/05 10:20:35;;;;;;;2.00;0.57;;;;;;;;;;5132151;27;20441;-72
2022/07/05 10:23:06;;;;;;;1.90;0.83;;;;;;;;;;5134374;27;20481;-72
2022/07/05 10:25:37;;;;;;;2.60;0.70;;;;;;;;;;5133976;27;20732;-74
2022/07/05 10:28:20;;;;;;;4.57;0.93;;;;;;;;;;5131477;27;20462;-72
2022/07/05 10:30:54;;;;;;;2.30;0.70;;;;;;;;;;5127952;27;20455;-73
2022/07/05 10:33:26;;;;;;;1.83;0.60;;;;;;;;;;5133054;27;20998;-72
2022/07/05 10:35:56;;;;;;;2.63;0.80;;;;;;;;;;5138846;27;20465;-73
2022/07/05 10:38:26;;;;;;;2.93;1.40;;;;;;;;;;5123282;27;20449;-73
2022/07/05 10:41:03;;;;;;;3.23;1.20;;;;;;;;;;5130160;27;20711;-73
2022/07/05 10:43:40;;;;;;;1.57;0.60;;;;;;;;;;5125447;27;20454;-73
2022/07/05 10:49:12;;;;;;;3.80;0.80;;;;;;;;;;5132050;27;20484;-73
2022/07/05 10:51:41;;;;;;;1.50;0.70;;;;;;;;;;5135019;27;20540;-73
2022/07/05 10:54:18;;;;;;;3.17;0.73;;;;;;;;;;5131577;27;20522;-72
2022/07/05 11:00:05;;;;;;;2.57;0.80;;;;;;;;;;5128332;27;20458;-73
2022/07/05 11:02:40;;;;;;;3.03;0.70;;;;;;;;;;5129163;27;20450;-73
2022/07/05 11:05:10;;;;;;;4.53;0.80;;;;;;;;;;5134908;27;20800;-72
2022/07/05 11:08:02;;;;;;;2.10;0.63;;;;;;;;;;5125831;27;20457;-72
2022/07/05 11:10:36;;;;;;;5.57;0.87;;;;;;;;;;5128711;27;20513;-71
2022/07/05 11:13:26;;;;;;;2.47;0.60;;;;;;;;;;5125422;27;20458;-72
2022/07/05 11:16:08;;;;;;;2.00;0.70;;;;;;;;;;5136066;27;20495;-72
2022/07/05 11:21:50;;;;;;;1.70;0.63;;;;;;;;;;5121759;27;20467;-71
2022/07/05 11:24:21;;;;;;;2.70;1.30;;;;;;;;;;5130259;27;20468;-72
2022/07/05 11:26:52;;;;;;;2.20;0.87;;;;;;;;;;5131217;27;20984;-71
2022/07/05 11:29:35;;;;;;;2.77;0.70;;;;;;;;;;5133361;27;20483;-71
2022/07/05 11:32:08;;;;;;;2.43;1.33;;;;;;;;;;5120828;27;20518;-71
2022/07/05 11:34:45;;;;;;;2.97;1.10;;;;;;;;;;5123043;27;20450;-70
2022/07/05 11:37:28;;;;;;;2.80;0.80;;;;;;;;;;5127094;27;20497;-73
2022/07/05 11:40:14;;;;;;;2.03;0.80;;;;;;;;;;5121640;27;20534;-73
2022/07/05 11:42:48;;;;;;;1.63;0.70;;;;;;;;;;5128957;27;20457;-71
2022/07/05 11:45:26;;;;;;;2.43;0.73;;;;;;;;;;5131038;27;20446;-71
2022/07/05 11:48:01;;;;;;;2.43;0.63;;;;;;;;;;5121355;27;20461;-71
2022/07/05 11:50:33;;;;;;;3.00;0.97;;;;;;;;;;5132937;27;20530;-70
2022/07/05 11:53:01;;;;;;;3.23;0.80;;;;;;;;;;5131713;27;20520;-71
2022/07/05 11:55:32;;;;;;;1.60;0.60;;;;;;;;;;5129245;27;21041;-70
2022/07/05 11:58:00;;;;;;;2.07;0.70;;;;;;;;;;5129551;27;20455;-71
2022/07/05 12:00:28;;;;;;;3.90;1.10;;;;;;;;;;5126074;27;20832;-71
2022/07/05 12:03:13;;;;;;;2.20;0.70;;;;;;;;;;5138165;27;20502;-71
2022/07/05 12:05:44;;;;;;;1.67;0.70;;;;;;;;;;5126399;27;20644;-71
2022/07/05 12:08:12;;;;;;;1.70;0.67;;;;;;;;;;5132960;27;20489;-71
2022/07/05 12:13:33;;;;;;;5.40;0.80;;;;;;;;;;5120134;27;20437;-71
2022/07/05 12:16:03;;;;;;;2.63;0.90;;;;;;;;;;5116361;27;20463;-71
2022/07/05 12:18:30;;;;;;;2.70;0.60;;;;;;;;;;5114576;27;20458;-70
2022/07/05 12:21:01;;;;;;;1.63;0.50;;;;;;;;;;5123645;27;20545;-72
2022/07/05 12:23:33;;;;;;;2.47;0.60;;;;;;;;;;5123451;27;21087;-73
2022/07/05 12:26:03;;;;;;;2.43;0.83;;;;;;;;;;5128645;27;20462;-70
2022/07/05 12:28:32;;;;;;;1.60;0.70;;;;;;;;;;5133327;27;20468;-69
2022/07/05 12:31:03;;;;;;;2.93;0.90;;;;;;;;;;5131490;27;20513;-70
2022/07/05 12:33:33;;;;;;;3.23;0.90;;;;;;;;;;5124664;27;20474;-72
2022/07/05 12:36:05;;;;;;;1.60;0.60;;;;;;;;;;5120385;27;20473;-71
2022/07/05 12:38:33;;;;;;;2.47;0.70;;;;;;;;;;5121103;27;20873;-71
2022/07/05 12:41:04;;;;;;;2.03;0.77;;;;;;;;;;5124411;27;20450;-70
2022/07/05 12:43:32;;;;;;;2.30;1.10;;;;;;;;;;5130809;27;20464;-71
2022/07/05 12:46:05;;;;;;;3.20;1.37;;;;;;;;;;5119046;27;20454;-71
2022/07/05 12:48:38;;;;;;;1.80;0.67;;;;;;;;;;5125094;27;20504;-71
2022/07/05 12:51:11;;;;;;;4.53;0.80;;;;;;;;;;5122151;27;20466;-71
2022/07/05 12:59:20;;;;;;;1.70;0.70;;;;;;;;;;5117957;27;20518;-70
2022/07/05 13:01:51;;;;;;;3.47;1.70;;;;;;;;;;5123940;27;20874;-70
2022/07/05 13:04:28;;;;;;;2.40;0.73;;;;;;;;;;5121810;27;20977;-72
2022/07/05 13:07:04;;;;;;;3.03;0.83;;;;;;;;;;5127834;27;20474;-71
2022/07/05 13:09:33;;;;;;;1.50;0.60;;;;;;;;;;5127628;27;20491;-72
2022/07/05 13:12:26;;;;;;;3.10;0.70;;;;;;;;;;5126936;27;20465;-71
2022/07/05 13:14:59;;;;;;;2.53;0.60;;;;;;;;;;5124814;27;20514;-73
2022/07/05 13:17:28;;;;;;;2.27;1.00;;;;;;;;;;5119895;27;20466;-72
2022/07/05 13:20:01;;;;;;;3.33;0.90;;;;;;;;;;5126807;27;20503;-71
2022/07/05 13:22:38;;;;;;;1.40;0.50;;;;;;;;;;5120482;27;20463;-71
2022/07/05 13:25:17;;;;;;;5.60;0.80;;;;;;;;;;5130458;27;20460;-70
2022/07/05 13:27:48;;;;;;;2.37;0.70;;;;;;;;;;5120440;27;20462;-71
2022/07/05 13:30:16;;;;;;;2.00;0.70;;;;;;;;;;5115942;27;20479;-70
2022/07/05 13:32:45;;;;;;;2.40;0.90;;;;;;;;;;5113657;27;21127;-69
2022/07/05 13:35:13;;;;;;;1.73;0.83;;;;;;;;;;5129103;27;20461;-70
2022/07/05 13:37:43;;;;;;;2.40;0.70;;;;;;;;;;5126682;27;20873;-70
2022/07/05 13:40:15;;;;;;;1.80;0.63;;;;;;;;;;5123764;27;20533;-70
2022/07/05 13:42:44;;;;;;;3.03;1.10;;;;;;;;;;5131617;27;20464;-70
2022/07/05 13:45:15;;;;;;;2.33;0.80;;;;;;;;;;5123906;27;20476;-70
2022/07/05 13:47:45;;;;;;;1.87;0.80;;;;;;;;;;5125495;27;20558;-69
2022/07/05 13:53:03;;;;;;;4.03;0.70;;;;;;;;;;5113509;27;20446;-71
2022/07/05 13:55:31;;;;;;;3.50;0.90;;;;;;;;;;5120327;27;20462;-70
2022/07/05 13:57:59;;;;;;;2.20;1.10;;;;;;;;;;5124998;27;20458;-70
2022/07/05 14:00:28;;;;;;;2.17;0.80;;;;;;;;;;5122886;27;20462;-71
2022/07/05 14:03:05;;;;;;;4.60;0.80;;;;;;;;;;5125717;27;20478;-71
2022/07/05 14:05:49;;;;;;;1.90;0.83;;;;;;;;;;5135304;27;20461;-71
2022/07/05 14:08:23;;;;;;;1.60;0.60;;;;;;;;;;5127539;27;20457;-71
2022/07/05 14:10:53;;;;;;;2.33;0.70;;;;;;;;;;5135167;27;20473;-71
2022/07/05 14:13:21;;;;;;;2.93;0.90;;;;;;;;;;5123564;27;20456;-71
2022/07/05 14:15:50;;;;;;;1.90;0.70;;;;;;;;;;5126421;27;20465;-71
2022/07/05 14:18:19;;;;;;;3.00;0.70;;;;;;;;;;5134318;27;20454;-71
2022/07/05 14:20:53;;;;;;;3.60;0.80;;;;;;;;;;5121085;27;20441;-72
2022/07/05 14:23:22;;;;;;;3.87;0.93;;;;;;;;;;5125343;27;20452;-71
2022/07/05 14:25:50;;;;;;;1.87;0.60;;;;;;;;;;5115568;27;20488;-71
2022/07/05 14:28:18;;;;;;;3.60;0.87;;;;;;;;;;5118740;27;20503;-71
2022/07/05 14:30:50;;;;;;;3.70;0.77;;;;;;;;;;5118313;27;20474;-71
2022/07/05 14:33:27;;;;;;;1.97;0.60;;;;;;;;;;5126596;27;20454;-71
2022/07/05 14:35:55;;;;;;;3.03;0.80;;;;;;;;;;5120505;27;20466;-71
2022/07/05 14:38:26;;;;;;;2.53;0.70;;;;;;;;;;5121520;27;20480;-71
2022/07/05 14:40:54;;;;;;;2.60;0.90;;;;;;;;;;5123382;27;20472;-71
2022/07/05 14:43:21;;;;;;;2.63;1.27;;;;;;;;;;5126453;27;20454;-70
2022/07/05 14:45:53;;;;;;;3.10;1.33;;;;;;;;;;5125758;27;20524;-72
2022/07/05 14:48:22;;;;;;;4.20;1.73;;;;;;;;;;5120006;27;20461;-71
2022/07/05 14:51:02;;;;;;;3.40;0.70;;;;;;;;;;5121158;27;20996;-71
2022/07/05 14:53:31;;;;;;;3.60;0.93;;;;;;;;;;5119625;27;20454;-70
2022/07/05 14:56:08;;;;;;;1.93;0.80;;;;;;;;;;5123995;27;20542;-71
2022/07/05 14:58:39;;;;;;;2.00;0.80;;;;;;;;;;5117302;27;20722;-71
2022/07/05 15:01:09;;;;;;;2.97;0.90;;;;;;;;;;5127288;27;20867;-71
2022/07/05 15:03:41;;;;;;;2.10;0.70;;;;;;;;;;5126029;27;20573;-71
2022/07/05 15:06:09;;;;;;;2.13;0.67;;;;;;;;;;5121898;27;20449;-71
2022/07/05 15:08:40;;;;;;;2.30;1.03;;;;;;;;;;5125024;27;20550;-71
2022/07/05 15:11:10;;;;;;;2.83;0.83;;;;;;;;;;5125461;27;20493;-69
2022/07/05 15:13:38;;;;;;;1.60;0.60;;;;;;;;;;5121427;27;20506;-70
2022/07/05 15:16:08;;;;;;;1.93;0.73;;;;;;;;;;5126767;27;22123;-70
2022/07/05 15:18:43;;;;;;;2.17;1.00;;;;;;;;;;5122734;27;20560;-71
2022/07/05 15:21:11;;;;;;;4.90;1.63;;;;;;;;;;5124625;27;20541;-70
2022/07/05 15:23:41;;;;;;;4.90;1.00;;;;;;;;;;5116351;27;20461;-70
2022/07/05 15:26:09;;;;;;;2.20;0.93;;;;;;;;;;5115699;27;20462;-71
2022/07/05 15:28:37;;;;;;;2.03;0.70;;;;;;;;;;5132865;27;20845;-70
2022/07/05 15:31:04;;;;;;;2.90;0.93;;;;;;;;;;5124240;27;20466;-70